sensor_id;sensor_type;location;lat;lon;timestamp;temperature;humidity
30134;DHT22;16946;49.984;10.672;2023-11-22T00:00:21;5.50;1.00
30134;DHT22;16946;49.984;10.672;2023-11-22T00:00:51;5.50;1.00
30134;DHT22;16946;49.984;10.672;2023-11-22T00:01:22;5.50;1.00
30134;DHT22;16946;49.984;10.672;2023-11-22T00:01:53;5.50;1.00
30134;DHT22;16946;49.984;10.672;2023-11-22T00:02:23;5.40;1.00
30134;DHT22;16946;49.984;10.672;2023-11-22T00:02:58;5.40;1.00
30134;DHT22;16946;49.984;10.672;2023-11-22T00:03:28;5.40;1.00
30134;DHT22;16946;49.984;10.672;2023-11-22T00:03:59;5.30;1.00
30134;DHT22;16946;49.984;10.672;2023-11-22T00:04:30;5.30;1.00
30134;DHT22;16946;49.984;10.672;2023-11-22T00:05:01;5.30;1.00
30134;DHT22;16946;49.984;10.672;2023-11-22T00:05:32;5.30;1.00
30134;DHT22;16946;49.984;10.672;2023-11-22T00:06:02;5.30;1.00
30134;DHT22;16946;49.984;10.672;2023-11-22T00:06:33;5.30;1.00
30134;DHT22;16946;49.984;10.672;2023-11-22T00:07:03;5.30;1.00
30134;DHT22;16946;49.984;10.672;2023-11-22T00:07:34;5.30;1.00
30134;DHT22;16946;49.984;10.672;2023-11-22T00:08:04;5.30;1.00
30134;DHT22;16946;49.984;10.672;2023-11-22T00:08:35;5.30;1.00
30134;DHT22;16946;49.984;10.672;2023-11-22T00:09:06;5.20;1.00
30134;DHT22;16946;49.984;10.672;2023-11-22T00:09:37;5.20;1.00
30134;DHT22;16946;49.984;10.672;2023-11-22T00:10:08;5.20;1.00
30134;DHT22;16946;49.984;10.672;2023-11-22T00:10:41;5.20;1.00
30134;DHT22;16946;49.984;10.672;2023-11-22T00:11:12;5.20;1.00
30134;DHT22;16946;49.984;10.672;2023-11-22T00:11:44;5.20;1.00
30134;DHT22;16946;49.984;10.672;2023-11-22T00:12:15;5.20;1.00
30134;DHT22;16946;49.984;10.672;2023-11-22T00:12:47;5.20;1.00
30134;DHT22;16946;49.984;10.672;2023-11-22T00:13:18;5.10;1.00
30134;DHT22;16946;49.984;10.672;2023-11-22T00:13:49;5.20;1.00
30134;DHT22;16946;49.984;10.672;2023-11-22T00:14:19;5.20;1.00
30134;DHT22;16946;49.984;10.672;2023-11-22T00:14:50;5.20;1.00
30134;DHT22;16946;49.984;10.672;2023-11-22T00:15:21;5.10;1.00
30134;DHT22;16946;49.984;10.672;2023-11-22T00:15:52;5.20;1.00
30134;DHT22;16946;49.984;10.672;2023-11-22T00:16:23;5.20;1.00
30134;DHT22;16946;49.984;10.672;2023-11-22T00:16:53;5.20;1.00
30134;DHT22;16946;49.984;10.672;2023-11-22T00:17:24;5.10;1.00
30134;DHT22;16946;49.984;10.672;2023-11-22T00:17:55;5.20;1.00
30134;DHT22;16946;49.984;10.672;2023-11-22T00:18:27;5.10;1.00
30134;DHT22;16946;49.984;10.672;2023-11-22T00:18:58;5.20;1.00
30134;DHT22;16946;49.984;10.672;2023-11-22T00:19:29;5.20;1.00
30134;DHT22;16946;49.984;10.672;2023-11-22T00:20:01;5.20;1.00
30134;DHT22;16946;49.984;10.672;2023-11-22T00:20:35;5.20;1.00
30134;DHT22;16946;49.984;10.672;2023-11-22T00:21:06;5.10;1.00
30134;DHT22;16946;49.984;10.672;2023-11-22T00:21:37;5.20;1.00
30134;DHT22;16946;49.984;10.672;2023-11-22T00:22:08;5.20;1.00
30134;DHT22;16946;49.984;10.672;2023-11-22T00:22:45;5.20;1.00
30134;DHT22;16946;49.984;10.672;2023-11-22T00:23:15;5.10;1.00
30134;DHT22;16946;49.984;10.672;2023-11-22T00:23:46;5.10;1.00
30134;DHT22;16946;49.984;10.672;2023-11-22T00:24:17;5.10;1.00
30134;DHT22;16946;49.984;10.672;2023-11-22T00:24:48;5.00;1.00
30134;DHT22;16946;49.984;10.672;2023-11-22T00:25:20;5.10;1.00
30134;DHT22;16946;49.984;10.672;2023-11-22T00:25:51;5.00;1.00
30134;DHT22;16946;49.984;10.672;2023-11-22T00:26:22;5.10;1.00
30134;DHT22;16946;49.984;10.672;2023-11-22T00:26:53;5.10;1.00
30134;DHT22;16946;49.984;10.672;2023-11-22T00:27:23;5.00;1.00
30134;DHT22;16946;49.984;10.672;2023-11-22T00:27:54;5.00;1.00
30134;DHT22;16946;49.984;10.672;2023-11-22T00:28:25;5.00;1.00
30134;DHT22;16946;49.984;10.672;2023-11-22T00:28:56;4.90;1.00
30134;DHT22;16946;49.984;10.672;2023-11-22T00:29:27;4.90;1.00
30134;DHT22;16946;49.984;10.672;2023-11-22T00:29:58;4.80;1.00
30134;DHT22;16946;49.984;10.672;2023-11-22T00:30:29;4.80;3.40
30134;DHT22;16946;49.984;10.672;2023-11-22T00:30:59;4.80;1.00
30134;DHT22;16946;49.984;10.672;2023-11-22T00:31:31;4.80;1.00
30134;DHT22;16946;49.984;10.672;2023-11-22T00:32:01;4.90;1.00
30134;DHT22;16946;49.984;10.672;2023-11-22T00:32:32;4.90;1.00
30134;DHT22;16946;49.984;10.672;2023-11-22T00:33:02;4.90;1.00
30134;DHT22;16946;49.984;10.672;2023-11-22T00:33:33;4.90;1.00
30134;DHT22;16946;49.984;10.672;2023-11-22T00:34:05;4.90;1.00
30134;DHT22;16946;49.984;10.672;2023-11-22T00:34:35;5.00;1.00
30134;DHT22;16946;49.984;10.672;2023-11-22T00:35:07;5.00;1.00
30134;DHT22;16946;49.984;10.672;2023-11-22T00:35:38;5.00;1.00
30134;DHT22;16946;49.984;10.672;2023-11-22T00:36:09;4.90;1.00
30134;DHT22;16946;49.984;10.672;2023-11-22T00:36:40;4.90;1.00
30134;DHT22;16946;49.984;10.672;2023-11-22T00:37:11;4.90;1.00
30134;DHT22;16946;49.984;10.672;2023-11-22T00:37:41;4.90;1.00
30134;DHT22;16946;49.984;10.672;2023-11-22T00:38:12;4.90;1.00
30134;DHT22;16946;49.984;10.672;2023-11-22T00:38:42;4.90;1.00
30134;DHT22;16946;49.984;10.672;2023-11-22T00:39:14;4.90;1.00
30134;DHT22;16946;49.984;10.672;2023-11-22T00:39:44;4.90;1.00
30134;DHT22;16946;49.984;10.672;2023-11-22T00:40:15;4.90;1.00
30134;DHT22;16946;49.984;10.672;2023-11-22T00:40:46;4.90;1.00
30134;DHT22;16946;49.984;10.672;2023-11-22T00:41:16;4.80;1.00
30134;DHT22;16946;49.984;10.672;2023-11-22T00:41:47;4.80;1.00
30134;DHT22;16946;49.984;10.672;2023-11-22T00:42:17;4.80;2.20
30134;DHT22;16946;49.984;10.672;2023-11-22T00:42:50;4.70;1.00
30134;DHT22;16946;49.984;10.672;2023-11-22T00:43:21;4.50;4.50
30134;DHT22;16946;49.984;10.672;2023-11-22T00:43:51;4.50;24.90
30134;DHT22;16946;49.984;10.672;2023-11-22T00:44:22;4.40;31.40
30134;DHT22;16946;49.984;10.672;2023-11-22T00:44:53;4.40;39.00
30134;DHT22;16946;49.984;10.672;2023-11-22T00:45:23;4.40;43.10
30134;DHT22;16946;49.984;10.672;2023-11-22T00:45:54;4.40;39.10
30134;DHT22;16946;49.984;10.672;2023-11-22T00:46:25;4.40;45.00
30134;DHT22;16946;49.984;10.672;2023-11-22T00:46:56;4.50;47.90
30134;DHT22;16946;49.984;10.672;2023-11-22T00:47:27;4.50;41.20
30134;DHT22;16946;49.984;10.672;2023-11-22T00:47:58;4.40;23.60
30134;DHT22;16946;49.984;10.672;2023-11-22T00:48:28;4.40;35.90
30134;DHT22;16946;49.984;10.672;2023-11-22T00:48:59;4.30;40.70
30134;DHT22;16946;49.984;10.672;2023-11-22T00:49:29;4.30;41.80
30134;DHT22;16946;49.984;10.672;2023-11-22T00:50:00;4.40;38.00
30134;DHT22;16946;49.984;10.672;2023-11-22T00:50:31;4.50;39.60
30134;DHT22;16946;49.984;10.672;2023-11-22T00:51:02;4.50;37.60
30134;DHT22;16946;49.984;10.672;2023-11-22T00:51:38;4.50;33.80
30134;DHT22;16946;49.984;10.672;2023-11-22T00:52:09;4.50;29.00
30134;DHT22;16946;49.984;10.672;2023-11-22T00:52:40;4.60;31.00
30134;DHT22;16946;49.984;10.672;2023-11-22T00:53:14;4.60;30.70
30134;DHT22;16946;49.984;10.672;2023-11-22T00:53:45;4.50;28.00
30134;DHT22;16946;49.984;10.672;2023-11-22T00:54:16;4.50;34.20
30134;DHT22;16946;49.984;10.672;2023-11-22T00:54:46;4.50;40.40
30134;DHT22;16946;49.984;10.672;2023-11-22T00:55:17;4.50;52.80
30134;DHT22;16946;49.984;10.672;2023-11-22T00:55:48;4.50;48.70
30134;DHT22;16946;49.984;10.672;2023-11-22T00:56:18;4.40;40.20
30134;DHT22;16946;49.984;10.672;2023-11-22T00:56:49;4.40;45.00
30134;DHT22;16946;49.984;10.672;2023-11-22T00:57:19;4.40;45.70
30134;DHT22;16946;49.984;10.672;2023-11-22T00:57:50;4.40;42.70
30134;DHT22;16946;49.984;10.672;2023-11-22T00:58:21;4.30;48.40
30134;DHT22;16946;49.984;10.672;2023-11-22T00:58:52;4.30;62.40
30134;DHT22;16946;49.984;10.672;2023-11-22T00:59:23;4.20;69.70
30134;DHT22;16946;49.984;10.672;2023-11-22T00:59:54;4.20;64.80
30134;DHT22;16946;49.984;10.672;2023-11-22T01:00:24;4.10;66.70
30134;DHT22;16946;49.984;10.672;2023-11-22T01:00:55;4.10;74.70
30134;DHT22;16946;49.984;10.672;2023-11-22T01:01:26;4.10;76.70
30134;DHT22;16946;49.984;10.672;2023-11-22T01:01:56;4.10;75.90
30134;DHT22;16946;49.984;10.672;2023-11-22T01:02:27;4.10;77.20
30134;DHT22;16946;49.984;10.672;2023-11-22T01:02:57;4.10;79.50
30134;DHT22;16946;49.984;10.672;2023-11-22T01:03:28;4.10;84.90
30134;DHT22;16946;49.984;10.672;2023-11-22T01:03:58;4.10;83.20
30134;DHT22;16946;49.984;10.672;2023-11-22T01:04:29;4.20;81.90
30134;DHT22;16946;49.984;10.672;2023-11-22T01:05:00;4.30;80.90
30134;DHT22;16946;49.984;10.672;2023-11-22T01:05:31;4.30;78.60
30134;DHT22;16946;49.984;10.672;2023-11-22T01:06:02;4.40;69.40
30134;DHT22;16946;49.984;10.672;2023-11-22T01:06:34;4.40;64.40
30134;DHT22;16946;49.984;10.672;2023-11-22T01:07:05;4.50;54.70
30134;DHT22;16946;49.984;10.672;2023-11-22T01:07:35;4.50;54.50
30134;DHT22;16946;49.984;10.672;2023-11-22T01:08:06;4.60;52.90
30134;DHT22;16946;49.984;10.672;2023-11-22T01:08:36;4.60;50.80
30134;DHT22;16946;49.984;10.672;2023-11-22T01:09:07;4.60;47.90
30134;DHT22;16946;49.984;10.672;2023-11-22T01:09:39;4.70;41.00
30134;DHT22;16946;49.984;10.672;2023-11-22T01:10:10;4.70;26.90
30134;DHT22;16946;49.984;10.672;2023-11-22T01:10:40;4.80;25.60
30134;DHT22;16946;49.984;10.672;2023-11-22T01:11:11;4.70;23.20
30134;DHT22;16946;49.984;10.672;2023-11-22T01:11:43;4.70;23.70
30134;DHT22;16946;49.984;10.672;2023-11-22T01:12:14;4.80;20.00
30134;DHT22;16946;49.984;10.672;2023-11-22T01:12:44;4.80;15.20
30134;DHT22;16946;49.984;10.672;2023-11-22T01:13:15;4.80;11.20
30134;DHT22;16946;49.984;10.672;2023-11-22T01:13:46;4.80;1.00
30134;DHT22;16946;49.984;10.672;2023-11-22T01:14:16;4.70;1.00
30134;DHT22;16946;49.984;10.672;2023-11-22T01:14:47;4.80;4.80
30134;DHT22;16946;49.984;10.672;2023-11-22T01:15:17;4.80;4.10
30134;DHT22;16946;49.984;10.672;2023-11-22T01:15:48;4.80;7.40
30134;DHT22;16946;49.984;10.672;2023-11-22T01:16:19;4.80;8.70
30134;DHT22;16946;49.984;10.672;2023-11-22T01:16:49;4.80;10.70
30134;DHT22;16946;49.984;10.672;2023-11-22T01:17:20;4.80;10.60
30134;DHT22;16946;49.984;10.672;2023-11-22T01:17:51;4.90;11.90
30134;DHT22;16946;49.984;10.672;2023-11-22T01:18:21;4.90;12.30
30134;DHT22;16946;49.984;10.672;2023-11-22T01:18:52;4.90;5.90
30134;DHT22;16946;49.984;10.672;2023-11-22T01:19:23;4.90;1.00
30134;DHT22;16946;49.984;10.672;2023-11-22T01:19:53;5.00;1.00
30134;DHT22;16946;49.984;10.672;2023-11-22T01:20:24;4.90;1.00
30134;DHT22;16946;49.984;10.672;2023-11-22T01:20:54;5.00;1.00
30134;DHT22;16946;49.984;10.672;2023-11-22T01:21:25;5.00;1.00
30134;DHT22;16946;49.984;10.672;2023-11-22T01:21:55;4.90;1.00
30134;DHT22;16946;49.984;10.672;2023-11-22T01:22:26;4.90;1.00
30134;DHT22;16946;49.984;10.672;2023-11-22T01:22:57;4.90;1.00
30134;DHT22;16946;49.984;10.672;2023-11-22T01:23:28;4.90;1.00
30134;DHT22;16946;49.984;10.672;2023-11-22T01:23:58;4.90;1.00
30134;DHT22;16946;49.984;10.672;2023-11-22T01:24:30;5.00;1.00
30134;DHT22;16946;49.984;10.672;2023-11-22T01:25:00;5.00;1.00
30134;DHT22;16946;49.984;10.672;2023-11-22T01:25:31;5.00;1.00
30134;DHT22;16946;49.984;10.672;2023-11-22T01:26:02;5.00;1.00
30134;DHT22;16946;49.984;10.672;2023-11-22T01:26:33;5.00;1.00
30134;DHT22;16946;49.984;10.672;2023-11-22T01:27:04;5.00;1.00
30134;DHT22;16946;49.984;10.672;2023-11-22T01:27:35;5.00;1.00
30134;DHT22;16946;49.984;10.672;2023-11-22T01:28:06;5.00;1.00
30134;DHT22;16946;49.984;10.672;2023-11-22T01:28:37;5.00;1.00
30134;DHT22;16946;49.984;10.672;2023-11-22T01:29:07;5.00;1.00
30134;DHT22;16946;49.984;10.672;2023-11-22T01:29:38;5.00;1.00
30134;DHT22;16946;49.984;10.672;2023-11-22T01:30:09;5.00;99.90
30134;DHT22;16946;49.984;10.672;2023-11-22T01:30:39;5.10;99.90
30134;DHT22;16946;49.984;10.672;2023-11-22T01:31:13;5.10;1.00
30134;DHT22;16946;49.984;10.672;2023-11-22T01:31:44;5.00;1.00
30134;DHT22;16946;49.984;10.672;2023-11-22T01:32:14;5.00;1.00
30134;DHT22;16946;49.984;10.672;2023-11-22T01:32:47;4.90;1.00
30134;DHT22;16946;49.984;10.672;2023-11-22T01:33:20;4.90;1.00
30134;DHT22;16946;49.984;10.672;2023-11-22T01:33:50;4.90;1.00
30134;DHT22;16946;49.984;10.672;2023-11-22T01:34:21;4.90;1.00
30134;DHT22;16946;49.984;10.672;2023-11-22T01:34:52;5.00;1.00
30134;DHT22;16946;49.984;10.672;2023-11-22T01:35:22;4.90;1.00
30134;DHT22;16946;49.984;10.672;2023-11-22T01:35:53;4.90;1.00
30134;DHT22;16946;49.984;10.672;2023-11-22T01:36:24;4.90;1.00
30134;DHT22;16946;49.984;10.672;2023-11-22T01:36:56;4.90;1.00
30134;DHT22;16946;49.984;10.672;2023-11-22T01:37:26;4.90;1.00
30134;DHT22;16946;49.984;10.672;2023-11-22T01:37:57;4.90;1.00
30134;DHT22;16946;49.984;10.672;2023-11-22T01:38:28;4.80;1.00
30134;DHT22;16946;49.984;10.672;2023-11-22T01:38:58;4.80;1.00
30134;DHT22;16946;49.984;10.672;2023-11-22T01:39:30;4.80;1.00
30134;DHT22;16946;49.984;10.672;2023-11-22T01:40:01;4.80;1.00
30134;DHT22;16946;49.984;10.672;2023-11-22T01:40:34;4.80;1.00
30134;DHT22;16946;49.984;10.672;2023-11-22T01:41:04;4.70;1.00
30134;DHT22;16946;49.984;10.672;2023-11-22T01:41:35;4.70;1.00
30134;DHT22;16946;49.984;10.672;2023-11-22T01:42:05;4.80;1.00
30134;DHT22;16946;49.984;10.672;2023-11-22T01:42:37;4.80;1.00
30134;DHT22;16946;49.984;10.672;2023-11-22T01:43:19;4.80;1.00
30134;DHT22;16946;49.984;10.672;2023-11-22T01:43:50;4.80;1.00
30134;DHT22;16946;49.984;10.672;2023-11-22T01:44:21;4.80;1.00
30134;DHT22;16946;49.984;10.672;2023-11-22T01:44:51;4.90;1.00
30134;DHT22;16946;49.984;10.672;2023-11-22T01:45:23;5.00;1.00
30134;DHT22;16946;49.984;10.672;2023-11-22T01:45:54;5.00;1.00
30134;DHT22;16946;49.984;10.672;2023-11-22T01:46:26;5.10;1.00
30134;DHT22;16946;49.984;10.672;2023-11-22T01:46:56;5.10;1.00
30134;DHT22;16946;49.984;10.672;2023-11-22T01:47:27;5.00;1.00
30134;DHT22;16946;49.984;10.672;2023-11-22T01:47:58;5.10;1.00
30134;DHT22;16946;49.984;10.672;2023-11-22T01:48:28;5.10;1.00
30134;DHT22;16946;49.984;10.672;2023-11-22T01:49:00;5.10;1.00
30134;DHT22;16946;49.984;10.672;2023-11-22T01:49:31;5.10;1.00
30134;DHT22;16946;49.984;10.672;2023-11-22T01:50:04;5.10;1.00
30134;DHT22;16946;49.984;10.672;2023-11-22T01:50:37;5.10;1.00
30134;DHT22;16946;49.984;10.672;2023-11-22T01:51:08;5.00;1.00
30134;DHT22;16946;49.984;10.672;2023-11-22T01:51:39;5.00;1.00
30134;DHT22;16946;49.984;10.672;2023-11-22T01:52:11;5.00;1.00
30134;DHT22;16946;49.984;10.672;2023-11-22T01:52:41;5.00;1.00
30134;DHT22;16946;49.984;10.672;2023-11-22T01:53:13;5.00;1.00
30134;DHT22;16946;49.984;10.672;2023-11-22T01:53:48;5.10;1.00
30134;DHT22;16946;49.984;10.672;2023-11-22T01:54:20;5.00;1.00
30134;DHT22;16946;49.984;10.672;2023-11-22T01:54:53;5.10;1.00
30134;DHT22;16946;49.984;10.672;2023-11-22T01:55:24;5.10;1.00
30134;DHT22;16946;49.984;10.672;2023-11-22T01:55:54;5.10;1.00
30134;DHT22;16946;49.984;10.672;2023-11-22T01:56:26;5.10;1.00
30134;DHT22;16946;49.984;10.672;2023-11-22T01:56:57;5.00;1.00
30134;DHT22;16946;49.984;10.672;2023-11-22T01:57:27;5.00;1.00
30134;DHT22;16946;49.984;10.672;2023-11-22T01:57:58;4.90;1.00
30134;DHT22;16946;49.984;10.672;2023-11-22T01:58:29;4.90;1.00
30134;DHT22;16946;49.984;10.672;2023-11-22T01:59:00;4.80;1.00
30134;DHT22;16946;49.984;10.672;2023-11-22T01:59:31;4.80;1.00
30134;DHT22;16946;49.984;10.672;2023-11-22T02:00:02;4.80;1.00
30134;DHT22;16946;49.984;10.672;2023-11-22T02:00:50;4.80;1.00
30134;DHT22;16946;49.984;10.672;2023-11-22T02:01:21;4.80;1.00
30134;DHT22;16946;49.984;10.672;2023-11-22T02:01:52;4.80;1.00
30134;DHT22;16946;49.984;10.672;2023-11-22T02:02:23;4.90;99.90
30134;DHT22;16946;49.984;10.672;2023-11-22T02:02:54;4.90;99.90
30134;DHT22;16946;49.984;10.672;2023-11-22T02:03:24;4.90;99.90
30134;DHT22;16946;49.984;10.672;2023-11-22T02:03:55;4.80;99.90
30134;DHT22;16946;49.984;10.672;2023-11-22T02:04:25;4.80;1.00
30134;DHT22;16946;49.984;10.672;2023-11-22T02:04:57;4.80;1.00
30134;DHT22;16946;49.984;10.672;2023-11-22T02:05:27;4.80;1.00
30134;DHT22;16946;49.984;10.672;2023-11-22T02:05:58;4.80;1.00
30134;DHT22;16946;49.984;10.672;2023-11-22T02:06:30;4.80;1.00
30134;DHT22;16946;49.984;10.672;2023-11-22T02:07:02;4.70;1.00
30134;DHT22;16946;49.984;10.672;2023-11-22T02:07:32;4.70;1.00
30134;DHT22;16946;49.984;10.672;2023-11-22T02:08:03;4.70;1.00
30134;DHT22;16946;49.984;10.672;2023-11-22T02:08:34;4.70;1.00
30134;DHT22;16946;49.984;10.672;2023-11-22T02:09:04;4.70;1.00
30134;DHT22;16946;49.984;10.672;2023-11-22T02:09:35;4.70;1.00
30134;DHT22;16946;49.984;10.672;2023-11-22T02:10:07;4.70;1.00
30134;DHT22;16946;49.984;10.672;2023-11-22T02:10:38;4.60;1.00
30134;DHT22;16946;49.984;10.672;2023-11-22T02:11:09;4.60;1.00
30134;DHT22;16946;49.984;10.672;2023-11-22T02:11:41;4.60;1.00
30134;DHT22;16946;49.984;10.672;2023-11-22T02:12:12;4.60;1.00
30134;DHT22;16946;49.984;10.672;2023-11-22T02:12:43;4.60;1.00
30134;DHT22;16946;49.984;10.672;2023-11-22T02:13:13;4.70;1.00
30134;DHT22;16946;49.984;10.672;2023-11-22T02:13:44;4.70;1.00
30134;DHT22;16946;49.984;10.672;2023-11-22T02:14:15;4.70;1.00
30134;DHT22;16946;49.984;10.672;2023-11-22T02:14:47;4.70;1.00
30134;DHT22;16946;49.984;10.672;2023-11-22T02:15:18;4.70;1.00
30134;DHT22;16946;49.984;10.672;2023-11-22T02:15:49;4.70;1.00
30134;DHT22;16946;49.984;10.672;2023-11-22T02:16:19;4.80;1.00
30134;DHT22;16946;49.984;10.672;2023-11-22T02:16:50;4.80;1.00
30134;DHT22;16946;49.984;10.672;2023-11-22T02:17:21;4.90;1.00
30134;DHT22;16946;49.984;10.672;2023-11-22T02:17:53;4.90;1.00
30134;DHT22;16946;49.984;10.672;2023-11-22T02:18:23;4.90;1.00
30134;DHT22;16946;49.984;10.672;2023-11-22T02:18:54;4.80;1.00
30134;DHT22;16946;49.984;10.672;2023-11-22T02:19:25;4.80;1.00
30134;DHT22;16946;49.984;10.672;2023-11-22T02:19:55;4.80;1.00
30134;DHT22;16946;49.984;10.672;2023-11-22T02:20:26;4.80;1.00
30134;DHT22;16946;49.984;10.672;2023-11-22T02:20:57;4.70;99.90
30134;DHT22;16946;49.984;10.672;2023-11-22T02:21:27;4.70;99.90
30134;DHT22;16946;49.984;10.672;2023-11-22T02:21:58;4.70;99.90
30134;DHT22;16946;49.984;10.672;2023-11-22T02:22:29;4.80;99.90
30134;DHT22;16946;49.984;10.672;2023-11-22T02:23:08;4.80;99.90
30134;DHT22;16946;49.984;10.672;2023-11-22T02:23:41;4.70;99.90
30134;DHT22;16946;49.984;10.672;2023-11-22T02:24:12;4.70;1.00
30134;DHT22;16946;49.984;10.672;2023-11-22T02:24:43;4.60;1.00
30134;DHT22;16946;49.984;10.672;2023-11-22T02:25:14;4.60;1.00
30134;DHT22;16946;49.984;10.672;2023-11-22T02:25:47;4.60;1.00
30134;DHT22;16946;49.984;10.672;2023-11-22T02:26:18;4.70;1.00
30134;DHT22;16946;49.984;10.672;2023-11-22T02:26:49;4.70;1.00
30134;DHT22;16946;49.984;10.672;2023-11-22T02:27:20;4.70;1.00
30134;DHT22;16946;49.984;10.672;2023-11-22T02:27:50;4.70;1.00
30134;DHT22;16946;49.984;10.672;2023-11-22T02:28:22;4.70;1.00
30134;DHT22;16946;49.984;10.672;2023-11-22T02:28:52;4.70;99.90
30134;DHT22;16946;49.984;10.672;2023-11-22T02:29:23;4.70;99.90
30134;DHT22;16946;49.984;10.672;2023-11-22T02:29:54;4.70;1.00
30134;DHT22;16946;49.984;10.672;2023-11-22T02:30:24;4.60;1.00
30134;DHT22;16946;49.984;10.672;2023-11-22T02:30:56;4.60;1.00
30134;DHT22;16946;49.984;10.672;2023-11-22T02:31:26;4.70;1.00
30134;DHT22;16946;49.984;10.672;2023-11-22T02:31:57;4.60;1.00
30134;DHT22;16946;49.984;10.672;2023-11-22T02:32:28;4.60;99.90
30134;DHT22;16946;49.984;10.672;2023-11-22T02:33:00;4.50;1.00
30134;DHT22;16946;49.984;10.672;2023-11-22T02:33:30;4.50;1.00
30134;DHT22;16946;49.984;10.672;2023-11-22T02:34:01;4.40;1.00
30134;DHT22;16946;49.984;10.672;2023-11-22T02:34:31;4.40;1.00
30134;DHT22;16946;49.984;10.672;2023-11-22T02:35:02;4.40;1.00
30134;DHT22;16946;49.984;10.672;2023-11-22T02:35:37;4.40;1.00
30134;DHT22;16946;49.984;10.672;2023-11-22T02:36:08;4.40;1.00
30134;DHT22;16946;49.984;10.672;2023-11-22T02:36:38;4.40;1.00
30134;DHT22;16946;49.984;10.672;2023-11-22T02:37:09;4.40;1.00
30134;DHT22;16946;49.984;10.672;2023-11-22T02:37:40;4.50;1.00
30134;DHT22;16946;49.984;10.672;2023-11-22T02:38:10;4.50;1.00
30134;DHT22;16946;49.984;10.672;2023-11-22T02:38:41;4.50;1.00
30134;DHT22;16946;49.984;10.672;2023-11-22T02:39:12;4.50;1.00
30134;DHT22;16946;49.984;10.672;2023-11-22T02:40:02;4.50;1.00
30134;DHT22;16946;49.984;10.672;2023-11-22T02:40:35;4.50;1.00
30134;DHT22;16946;49.984;10.672;2023-11-22T02:41:05;4.40;1.00
30134;DHT22;16946;49.984;10.672;2023-11-22T02:41:36;4.40;1.00
30134;DHT22;16946;49.984;10.672;2023-11-22T02:42:06;4.30;1.00
30134;DHT22;16946;49.984;10.672;2023-11-22T02:42:39;4.40;1.00
30134;DHT22;16946;49.984;10.672;2023-11-22T02:43:09;4.40;1.00
30134;DHT22;16946;49.984;10.672;2023-11-22T02:43:41;4.40;1.00
30134;DHT22;16946;49.984;10.672;2023-11-22T02:44:12;4.50;1.00
30134;DHT22;16946;49.984;10.672;2023-11-22T02:44:47;4.50;1.00
30134;DHT22;16946;49.984;10.672;2023-11-22T02:45:20;4.50;1.00
30134;DHT22;16946;49.984;10.672;2023-11-22T02:45:54;4.60;1.00
30134;DHT22;16946;49.984;10.672;2023-11-22T02:46:24;4.50;1.00
30134;DHT22;16946;49.984;10.672;2023-11-22T02:46:56;4.50;99.90
30134;DHT22;16946;49.984;10.672;2023-11-22T02:47:28;4.40;99.90
30134;DHT22;16946;49.984;10.672;2023-11-22T02:47:58;4.40;99.90
30134;DHT22;16946;49.984;10.672;2023-11-22T02:48:31;4.40;99.90
30134;DHT22;16946;49.984;10.672;2023-11-22T02:49:03;4.40;99.90
30134;DHT22;16946;49.984;10.672;2023-11-22T02:49:34;4.30;1.00
30134;DHT22;16946;49.984;10.672;2023-11-22T02:50:05;4.30;1.00
30134;DHT22;16946;49.984;10.672;2023-11-22T02:50:36;4.30;1.00
30134;DHT22;16946;49.984;10.672;2023-11-22T02:51:10;4.40;99.90
30134;DHT22;16946;49.984;10.672;2023-11-22T02:51:41;4.30;99.90
30134;DHT22;16946;49.984;10.672;2023-11-22T02:52:12;4.30;99.90
30134;DHT22;16946;49.984;10.672;2023-11-22T02:52:45;4.40;99.90
30134;DHT22;16946;49.984;10.672;2023-11-22T02:53:15;4.40;99.90
30134;DHT22;16946;49.984;10.672;2023-11-22T02:53:48;4.30;99.90
30134;DHT22;16946;49.984;10.672;2023-11-22T02:54:18;4.30;99.90
30134;DHT22;16946;49.984;10.672;2023-11-22T02:54:49;4.30;99.90
30134;DHT22;16946;49.984;10.672;2023-11-22T02:55:20;4.30;99.90
30134;DHT22;16946;49.984;10.672;2023-11-22T02:55:50;4.20;99.90
30134;DHT22;16946;49.984;10.672;2023-11-22T02:56:21;4.20;99.90
30134;DHT22;16946;49.984;10.672;2023-11-22T02:56:51;4.20;99.90
30134;DHT22;16946;49.984;10.672;2023-11-22T02:57:22;4.20;99.90
30134;DHT22;16946;49.984;10.672;2023-11-22T02:57:53;4.10;99.90
30134;DHT22;16946;49.984;10.672;2023-11-22T02:58:23;4.10;99.90
30134;DHT22;16946;49.984;10.672;2023-11-22T02:58:54;4.10;99.90
30134;DHT22;16946;49.984;10.672;2023-11-22T02:59:24;4.10;99.90
30134;DHT22;16946;49.984;10.672;2023-11-22T02:59:55;4.00;99.90
30134;DHT22;16946;49.984;10.672;2023-11-22T03:00:25;4.00;99.90
30134;DHT22;16946;49.984;10.672;2023-11-22T03:00:56;4.00;99.90
30134;DHT22;16946;49.984;10.672;2023-11-22T03:01:27;4.00;99.90
30134;DHT22;16946;49.984;10.672;2023-11-22T03:01:58;4.00;99.90
30134;DHT22;16946;49.984;10.672;2023-11-22T03:02:28;4.00;99.90
30134;DHT22;16946;49.984;10.672;2023-11-22T03:02:59;4.00;99.90
30134;DHT22;16946;49.984;10.672;2023-11-22T03:03:29;4.00;99.90
30134;DHT22;16946;49.984;10.672;2023-11-22T03:04:00;4.00;99.90
30134;DHT22;16946;49.984;10.672;2023-11-22T03:04:31;3.90;99.90
30134;DHT22;16946;49.984;10.672;2023-11-22T03:05:01;3.90;99.90
30134;DHT22;16946;49.984;10.672;2023-11-22T03:05:32;3.90;99.90
30134;DHT22;16946;49.984;10.672;2023-11-22T03:06:02;3.90;99.90
30134;DHT22;16946;49.984;10.672;2023-11-22T03:06:33;3.90;99.90
30134;DHT22;16946;49.984;10.672;2023-11-22T03:07:04;3.90;99.90
30134;DHT22;16946;49.984;10.672;2023-11-22T03:07:37;3.90;99.90
30134;DHT22;16946;49.984;10.672;2023-11-22T03:08:07;3.90;99.90
30134;DHT22;16946;49.984;10.672;2023-11-22T03:08:40;3.80;99.90
30134;DHT22;16946;49.984;10.672;2023-11-22T03:09:10;3.80;99.90
30134;DHT22;16946;49.984;10.672;2023-11-22T03:09:41;3.70;99.90
30134;DHT22;16946;49.984;10.672;2023-11-22T03:10:14;3.70;99.90
30134;DHT22;16946;49.984;10.672;2023-11-22T03:10:44;3.80;99.90
30134;DHT22;16946;49.984;10.672;2023-11-22T03:11:15;3.80;99.90
30134;DHT22;16946;49.984;10.672;2023-11-22T03:11:46;3.80;99.90
30134;DHT22;16946;49.984;10.672;2023-11-22T03:12:17;3.80;99.90
30134;DHT22;16946;49.984;10.672;2023-11-22T03:12:48;3.80;99.90
30134;DHT22;16946;49.984;10.672;2023-11-22T03:13:19;3.80;99.90
30134;DHT22;16946;49.984;10.672;2023-11-22T03:13:49;3.80;99.90
30134;DHT22;16946;49.984;10.672;2023-11-22T03:14:20;3.80;99.90
30134;DHT22;16946;49.984;10.672;2023-11-22T03:14:52;3.70;1.00
30134;DHT22;16946;49.984;10.672;2023-11-22T03:15:28;3.80;1.00
30134;DHT22;16946;49.984;10.672;2023-11-22T03:15:59;3.80;99.90
30134;DHT22;16946;49.984;10.672;2023-11-22T03:16:30;3.80;99.90
30134;DHT22;16946;49.984;10.672;2023-11-22T03:17:00;3.70;99.90
30134;DHT22;16946;49.984;10.672;2023-11-22T03:17:31;3.80;99.90
30134;DHT22;16946;49.984;10.672;2023-11-22T03:18:03;3.80;99.90
30134;DHT22;16946;49.984;10.672;2023-11-22T03:18:36;3.80;99.90
30134;DHT22;16946;49.984;10.672;2023-11-22T03:19:08;3.80;99.90